sensor_id;sensor_type;location;lat;lon;timestamp;P1;durP1;ratioP1;P2;durP2;ratioP2
28838;SDS011;15971;50.772;6.100;2022-07-22T00:01:14;18.38;;;8.70;;
28838;SDS011;15971;50.772;6.100;2022-07-22T00:03:39;22.00;;;9.00;;
28838;SDS011;15971;50.772;6.100;2022-07-22T00:06:05;19.48;;;9.10;;
28838;SDS011;15971;50.772;6.100;2022-07-22T00:08:31;25.00;;;9.07;;
28838;SDS011;15971;50.772;6.100;2022-07-22T00:10:57;15.05;;;8.00;;
28838;SDS011;15971;50.772;6.100;2022-07-22T00:13:22;20.42;;;8.57;;
28838;SDS011;15971;50.772;6.100;2022-07-22T00:15:48;23.98;;;9.07;;
28838;SDS011;15971;50.772;6.100;2022-07-22T00:18:14;16.27;;;8.40;;
28838;SDS011;15971;50.772;6.100;2022-07-22T00:20:39;20.15;;;8.13;;
28838;SDS011;15971;50.772;6.100;2022-07-22T00:23:05;19.80;;;9.23;;
28838;SDS011;15971;50.772;6.100;2022-07-22T00:25:31;18.40;;;8.20;;
28838;SDS011;15971;50.772;6.100;2022-07-22T00:27:56;20.90;;;8.52;;
28838;SDS011;15971;50.772;6.100;2022-07-22T00:30:22;23.50;;;8.70;;
28838;SDS011;15971;50.772;6.100;2022-07-22T00:32:47;23.67;;;8.48;;
28838;SDS011;15971;50.772;6.100;2022-07-22T00:35:13;15.05;;;7.80;;
28838;SDS011;15971;50.772;6.100;2022-07-22T00:37:39;19.08;;;8.18;;
28838;SDS011;15971;50.772;6.100;2022-07-22T00:40:04;20.00;;;7.43;;
28838;SDS011;15971;50.772;6.100;2022-07-22T00:42:31;20.92;;;8.88;;
28838;SDS011;15971;50.772;6.100;2022-07-22T00:44:57;16.48;;;7.97;;
28838;SDS011;15971;50.772;6.100;2022-07-22T00:47:22;15.32;;;7.97;;
28838;SDS011;15971;50.772;6.100;2022-07-22T00:49:48;24.10;;;8.05;;
28838;SDS011;15971;50.772;6.100;2022-07-22T00:52:14;22.67;;;7.80;;
28838;SDS011;15971;50.772;6.100;2022-07-22T00:54:40;16.20;;;8.10;;
28838;SDS011;15971;50.772;6.100;2022-07-22T00:57:05;22.30;;;7.55;;
28838;SDS011;15971;50.772;6.100;2022-07-22T00:59:31;23.08;;;8.07;;
28838;SDS011;15971;50.772;6.100;2022-07-22T01:01:57;25.38;;;8.85;;
28838;SDS011;15971;50.772;6.100;2022-07-22T01:04:23;16.45;;;8.07;;
28838;SDS011;15971;50.772;6.100;2022-07-22T01:06:48;14.93;;;7.15;;
28838;SDS011;15971;50.772;6.100;2022-07-22T01:09:14;15.77;;;7.30;;
28838;SDS011;15971;50.772;6.100;2022-07-22T01:11:40;21.23;;;7.35;;
28838;SDS011;15971;50.772;6.100;2022-07-22T01:14:06;19.23;;;7.07;;
28838;SDS011;15971;50.772;6.100;2022-07-22T01:16:31;28.27;;;8.00;;
28838;SDS011;15971;50.772;6.100;2022-07-22T01:18:57;16.92;;;7.63;;
28838;SDS011;15971;50.772;6.100;2022-07-22T01:21:23;18.65;;;7.68;;
28838;SDS011;15971;50.772;6.100;2022-07-22T01:23:49;20.30;;;7.45;;
28838;SDS011;15971;50.772;6.100;2022-07-22T01:26:15;19.92;;;8.20;;
28838;SDS011;15971;50.772;6.100;2022-07-22T01:28:42;19.08;;;8.13;;
28838;SDS011;15971;50.772;6.100;2022-07-22T01:31:07;14.25;;;7.00;;
28838;SDS011;15971;50.772;6.100;2022-07-22T01:33:33;20.42;;;7.70;;
28838;SDS011;15971;50.772;6.100;2022-07-22T01:36:00;10.82;;;4.25;;
28838;SDS011;15971;50.772;6.100;2022-07-22T01:38:26;14.63;;;5.47;;
28838;SDS011;15971;50.772;6.100;2022-07-22T01:40:52;11.77;;;4.45;;
28838;SDS011;15971;50.772;6.100;2022-07-22T01:43:17;11.15;;;5.10;;
28838;SDS011;15971;50.772;6.100;2022-07-22T01:45:45;9.20;;;4.38;;
28838;SDS011;15971;50.772;6.100;2022-07-22T01:48:13;8.48;;;4.40;;
28838;SDS011;15971;50.772;6.100;2022-07-22T01:50:39;7.82;;;3.35;;
28838;SDS011;15971;50.772;6.100;2022-07-22T01:53:05;7.68;;;3.58;;
28838;SDS011;15971;50.772;6.100;2022-07-22T01:55:31;10.20;;;4.53;;
28838;SDS011;15971;50.772;6.100;2022-07-22T01:57:57;12.57;;;5.13;;
28838;SDS011;15971;50.772;6.100;2022-07-22T02:00:22;10.45;;;4.95;;
28838;SDS011;15971;50.772;6.100;2022-07-22T02:02:48;10.93;;;4.85;;
28838;SDS011;15971;50.772;6.100;2022-07-22T02:05:13;12.90;;;5.57;;
28838;SDS011;15971;50.772;6.100;2022-07-22T02:07:39;13.68;;;5.82;;
28838;SDS011;15971;50.772;6.100;2022-07-22T02:10:05;15.98;;;7.13;;
28838;SDS011;15971;50.772;6.100;2022-07-22T02:12:31;15.07;;;6.78;;
28838;SDS011;15971;50.772;6.100;2022-07-22T02:14:57;19.85;;;8.25;;
28838;SDS011;15971;50.772;6.100;2022-07-22T02:17:22;25.55;;;8.20;;
28838;SDS011;15971;50.772;6.100;2022-07-22T02:19:48;15.27;;;7.82;;
28838;SDS011;15971;50.772;6.100;2022-07-22T02:22:14;16.67;;;7.97;;
28838;SDS011;15971;50.772;6.100;2022-07-22T02:24:40;24.35;;;9.57;;
28838;SDS011;15971;50.772;6.100;2022-07-22T02:27:06;13.77;;;7.15;;
28838;SDS011;15971;50.772;6.100;2022-07-22T02:29:31;18.92;;;7.88;;
28838;SDS011;15971;50.772;6.100;2022-07-22T02:31:58;17.05;;;7.60;;
28838;SDS011;15971;50.772;6.100;2022-07-22T02:34:23;24.48;;;7.38;;
28838;SDS011;15971;50.772;6.100;2022-07-22T02:36:49;20.30;;;7.35;;
28838;SDS011;15971;50.772;6.100;2022-07-22T02:39:15;13.27;;;6.63;;
28838;SDS011;15971;50.772;6.100;2022-07-22T02:41:40;16.70;;;6.50;;
28838;SDS011;15971;50.772;6.100;2022-07-22T02:44:06;18.73;;;7.57;;
28838;SDS011;15971;50.772;6.100;2022-07-22T02:46:31;15.57;;;6.50;;
28838;SDS011;15971;50.772;6.100;2022-07-22T02:48:57;16.50;;;6.22;;
28838;SDS011;15971;50.772;6.100;2022-07-22T02:51:23;13.90;;;5.13;;
28838;SDS011;15971;50.772;6.100;2022-07-22T02:53:49;20.58;;;5.65;;
28838;SDS011;15971;50.772;6.100;2022-07-22T02:56:15;15.75;;;5.75;;
28838;SDS011;15971;50.772;6.100;2022-07-22T02:58:41;12.50;;;5.65;;
28838;SDS011;15971;50.772;6.100;2022-07-22T03:01:07;12.93;;;5.07;;
28838;SDS011;15971;50.772;6.100;2022-07-22T03:03:33;8.68;;;5.05;;
28838;SDS011;15971;50.772;6.100;2022-07-22T03:05:59;14.35;;;4.53;;
28838;SDS011;15971;50.772;6.100;2022-07-22T03:08:25;11.27;;;4.93;;
28838;SDS011;15971;50.772;6.100;2022-07-22T03:10:51;9.02;;;4.57;;
28838;SDS011;15971;50.772;6.100;2022-07-22T03:13:17;6.65;;;4.25;;
28838;SDS011;15971;50.772;6.100;2022-07-22T03:15:43;11.63;;;4.97;;
28838;SDS011;15971;50.772;6.100;2022-07-22T03:18:08;11.93;;;4.55;;
28838;SDS011;15971;50.772;6.100;2022-07-22T03:20:34;6.05;;;3.22;;
28838;SDS011;15971;50.772;6.100;2022-07-22T03:23:00;7.72;;;3.33;;
28838;SDS011;15971;50.772;6.100;2022-07-22T03:25:26;7.60;;;3.40;;
28838;SDS011;15971;50.772;6.100;2022-07-22T03:27:52;8.70;;;3.35;;
28838;SDS011;15971;50.772;6.100;2022-07-22T03:30:17;7.72;;;3.47;;
28838;SDS011;15971;50.772;6.100;2022-07-22T03:32:43;6.07;;;2.95;;
28838;SDS011;15971;50.772;6.100;2022-07-22T03:35:11;5.93;;;3.20;;
28838;SDS011;15971;50.772;6.100;2022-07-22T03:37:38;7.95;;;3.17;;
28838;SDS011;15971;50.772;6.100;2022-07-22T03:40:04;7.53;;;2.97;;
28838;SDS011;15971;50.772;6.100;2022-07-22T03:42:30;7.93;;;3.45;;
28838;SDS011;15971;50.772;6.100;2022-07-22T03:44:56;5.35;;;2.78;;
28838;SDS011;15971;50.772;6.100;2022-07-22T03:47:21;7.15;;;3.30;;
28838;SDS011;15971;50.772;6.100;2022-07-22T03:49:48;3.97;;;3.15;;
28838;SDS011;15971;50.772;6.100;2022-07-22T03:52:14;9.40;;;3.85;;
28838;SDS011;15971;50.772;6.100;2022-07-22T03:54:41;7.18;;;4.28;;
28838;SDS011;15971;50.772;6.100;2022-07-22T03:57:08;8.68;;;4.47;;
28838;SDS011;15971;50.772;6.100;2022-07-22T03:59:34;7.10;;;4.45;;
28838;SDS011;15971;50.772;6.100;2022-07-22T04:02:00;7.95;;;4.25;;
28838;SDS011;15971;50.772;6.100;2022-07-22T04:04:26;10.30;;;4.47;;
28838;SDS011;15971;50.772;6.100;2022-07-22T04:06:51;8.50;;;4.03;;
28838;SDS011;15971;50.772;6.100;2022-07-22T04:09:17;10.57;;;5.05;;
28838;SDS011;15971;50.772;6.100;2022-07-22T04:11:43;8.43;;;4.90;;
28838;SDS011;15971;50.772;6.100;2022-07-22T04:14:09;8.98;;;4.35;;
28838;SDS011;15971;50.772;6.100;2022-07-22T04:16:35;11.57;;;4.30;;
28838;SDS011;15971;50.772;6.100;2022-07-22T04:19:01;4.82;;;3.90;;
28838;SDS011;15971;50.772;6.100;2022-07-22T04:21:27;6.80;;;4.50;;
28838;SDS011;15971;50.772;6.100;2022-07-22T04:23:53;8.77;;;3.78;;
28838;SDS011;15971;50.772;6.100;2022-07-22T04:26:19;8.70;;;4.10;;
28838;SDS011;15971;50.772;6.100;2022-07-22T04:28:44;11.48;;;4.38;;
28838;SDS011;15971;50.772;6.100;2022-07-22T04:31:10;10.70;;;4.47;;
28838;SDS011;15971;50.772;6.100;2022-07-22T04:33:36;9.65;;;4.70;;
28838;SDS011;15971;50.772;6.100;2022-07-22T04:36:02;10.57;;;4.88;;
28838;SDS011;15971;50.772;6.100;2022-07-22T04:38:28;17.33;;;5.22;;
28838;SDS011;15971;50.772;6.100;2022-07-22T04:40:54;9.25;;;4.88;;
28838;SDS011;15971;50.772;6.100;2022-07-22T04:43:20;9.52;;;4.72;;
28838;SDS011;15971;50.772;6.100;2022-07-22T04:45:45;11.85;;;5.13;;
28838;SDS011;15971;50.772;6.100;2022-07-22T04:48:11;15.07;;;4.97;;
28838;SDS011;15971;50.772;6.100;2022-07-22T04:50:37;11.05;;;5.20;;
28838;SDS011;15971;50.772;6.100;2022-07-22T04:53:02;14.38;;;6.35;;
28838;SDS011;15971;50.772;6.100;2022-07-22T04:55:28;13.35;;;5.40;;
28838;SDS011;15971;50.772;6.100;2022-07-22T04:57:54;15.23;;;5.95;;
28838;SDS011;15971;50.772;6.100;2022-07-22T05:00:19;14.68;;;5.75;;
28838;SDS011;15971;50.772;6.100;2022-07-22T05:02:45;9.13;;;5.65;;
28838;SDS011;15971;50.772;6.100;2022-07-22T05:05:11;18.73;;;6.03;;
28838;SDS011;15971;50.772;6.100;2022-07-22T05:07:36;15.98;;;5.75;;
28838;SDS011;15971;50.772;6.100;2022-07-22T05:10:02;9.63;;;5.82;;
28838;SDS011;15971;50.772;6.100;2022-07-22T05:12:29;14.27;;;6.82;;
28838;SDS011;15971;50.772;6.100;2022-07-22T05:14:54;11.90;;;5.55;;
28838;SDS011;15971;50.772;6.100;2022-07-22T05:17:20;10.27;;;5.22;;
28838;SDS011;15971;50.772;6.100;2022-07-22T05:19:45;9.55;;;5.30;;
28838;SDS011;15971;50.772;6.100;2022-07-22T05:22:11;10.38;;;5.53;;
28838;SDS011;15971;50.772;6.100;2022-07-22T05:24:37;9.48;;;4.80;;
28838;SDS011;15971;50.772;6.100;2022-07-22T05:27:03;7.55;;;3.83;;
28838;SDS011;15971;50.772;6.100;2022-07-22T05:29:28;8.63;;;4.80;;
28838;SDS011;15971;50.772;6.100;2022-07-22T05:31:55;8.07;;;4.35;;
28838;SDS011;15971;50.772;6.100;2022-07-22T05:34:21;10.00;;;4.05;;
28838;SDS011;15971;50.772;6.100;2022-07-22T05:36:46;8.80;;;4.18;;
28838;SDS011;15971;50.772;6.100;2022-07-22T05:39:12;8.90;;;3.47;;
28838;SDS011;15971;50.772;6.100;2022-07-22T05:41:38;6.28;;;3.08;;
28838;SDS011;15971;50.772;6.100;2022-07-22T05:44:04;6.45;;;3.58;;
28838;SDS011;15971;50.772;6.100;2022-07-22T05:46:29;7.30;;;3.30;;
28838;SDS011;15971;50.772;6.100;2022-07-22T05:48:55;4.88;;;3.00;;
28838;SDS011;15971;50.772;6.100;2022-07-22T05:51:21;6.72;;;2.83;;
28838;SDS011;15971;50.772;6.100;2022-07-22T05:53:46;5.70;;;2.95;;
28838;SDS011;15971;50.772;6.100;2022-07-22T05:56:12;5.43;;;2.78;;
28838;SDS011;15971;50.772;6.100;2022-07-22T05:58:39;6.75;;;3.25;;
28838;SDS011;15971;50.772;6.100;2022-07-22T06:01:06;8.70;;;3.28;;
28838;SDS011;15971;50.772;6.100;2022-07-22T06:03:32;7.07;;;3.63;;
28838;SDS011;15971;50.772;6.100;2022-07-22T06:05:59;7.03;;;2.78;;
28838;SDS011;15971;50.772;6.100;2022-07-22T06:08:27;5.68;;;3.05;;
28838;SDS011;15971;50.772;6.100;2022-07-22T06:10:53;7.63;;;3.47;;
28838;SDS011;15971;50.772;6.100;2022-07-22T06:13:19;9.32;;;3.85;;
28838;SDS011;15971;50.772;6.100;2022-07-22T06:15:44;6.93;;;3.25;;
28838;SDS011;15971;50.772;6.100;2022-07-22T06:18:10;8.60;;;3.05;;
28838;SDS011;15971;50.772;6.100;2022-07-22T06:20:36;9.77;;;3.60;;
28838;SDS011;15971;50.772;6.100;2022-07-22T06:23:02;8.40;;;3.35;;
28838;SDS011;15971;50.772;6.100;2022-07-22T06:25:27;10.82;;;3.72;;
28838;SDS011;15971;50.772;6.100;2022-07-22T06:27:53;5.30;;;3.13;;
28838;SDS011;15971;50.772;6.100;2022-07-22T06:30:18;6.45;;;3.28;;
28838;SDS011;15971;50.772;6.100;2022-07-22T06:32:45;7.95;;;3.78;;
28838;SDS011;15971;50.772;6.100;2022-07-22T06:35:11;7.32;;;3.30;;
28838;SDS011;15971;50.772;6.100;2022-07-22T06:37:36;8.75;;;5.13;;
28838;SDS011;15971;50.772;6.100;2022-07-22T06:40:02;23.60;;;9.93;;
28838;SDS011;15971;50.772;6.100;2022-07-22T06:42:28;7.47;;;3.80;;
28838;SDS011;15971;50.772;6.100;2022-07-22T06:44:54;7.18;;;2.78;;
28838;SDS011;15971;50.772;6.100;2022-07-22T06:47:19;8.35;;;3.72;;
28838;SDS011;15971;50.772;6.100;2022-07-22T06:49:45;6.63;;;3.50;;
28838;SDS011;15971;50.772;6.100;2022-07-22T06:52:11;8.60;;;3.20;;
28838;SDS011;15971;50.772;6.100;2022-07-22T06:54:36;9.38;;;3.47;;
28838;SDS011;15971;50.772;6.100;2022-07-22T06:57:02;5.80;;;2.90;;
28838;SDS011;15971;50.772;6.100;2022-07-22T06:59:28;9.25;;;3.55;;
28838;SDS011;15971;50.772;6.100;2022-07-22T07:01:53;8.57;;;5.35;;
28838;SDS011;15971;50.772;6.100;2022-07-22T07:04:19;9.60;;;6.32;;
28838;SDS011;15971;50.772;6.100;2022-07-22T07:06:44;12.48;;;8.38;;
28838;SDS011;15971;50.772;6.100;2022-07-22T07:09:10;10.27;;;7.13;;
28838;SDS011;15971;50.772;6.100;2022-07-22T07:11:36;12.32;;;8.20;;
28838;SDS011;15971;50.772;6.100;2022-07-22T07:14:01;10.75;;;8.23;;
28838;SDS011;15971;50.772;6.100;2022-07-22T07:16:27;11.45;;;8.25;;
28838;SDS011;15971;50.772;6.100;2022-07-22T07:18:53;10.88;;;8.60;;
28838;SDS011;15971;50.772;6.100;2022-07-22T07:21:18;12.18;;;8.63;;
28838;SDS011;15971;50.772;6.100;2022-07-22T07:23:44;10.38;;;8.52;;
28838;SDS011;15971;50.772;6.100;2022-07-22T07:26:09;12.20;;;9.13;;
28838;SDS011;15971;50.772;6.100;2022-07-22T07:28:35;13.70;;;10.35;;
28838;SDS011;15971;50.772;6.100;2022-07-22T07:31:01;12.38;;;8.50;;
28838;SDS011;15971;50.772;6.100;2022-07-22T07:33:27;13.18;;;9.30;;
28838;SDS011;15971;50.772;6.100;2022-07-22T07:35:52;13.65;;;10.20;;
28838;SDS011;15971;50.772;6.100;2022-07-22T07:38:18;12.60;;;8.82;;
28838;SDS011;15971;50.772;6.100;2022-07-22T07:40:44;12.05;;;8.75;;
28838;SDS011;15971;50.772;6.100;2022-07-22T07:43:09;26.23;;;17.88;;
28838;SDS011;15971;50.772;6.100;2022-07-22T07:45:35;13.40;;;9.52;;
28838;SDS011;15971;50.772;6.100;2022-07-22T07:48:02;13.65;;;9.55;;
28838;SDS011;15971;50.772;6.100;2022-07-22T07:50:30;13.30;;;10.48;;
28838;SDS011;15971;50.772;6.100;2022-07-22T07:52:56;15.70;;;10.40;;
28838;SDS011;15971;50.772;6.100;2022-07-22T07:55:22;14.98;;;11.27;;
28838;SDS011;15971;50.772;6.100;2022-07-22T07:57:49;19.58;;;13.25;;
28838;SDS011;15971;50.772;6.100;2022-07-22T08:00:15;17.27;;;11.73;;
28838;SDS011;15971;50.772;6.100;2022-07-22T08:02:43;18.10;;;13.65;;
28838;SDS011;15971;50.772;6.100;2022-07-22T08:05:08;21.75;;;15.77;;
28838;SDS011;15971;50.772;6.100;2022-07-22T08:07:34;22.35;;;14.75;;
28838;SDS011;15971;50.772;6.100;2022-07-22T08:10:01;15.48;;;13.23;;
28838;SDS011;15971;50.772;6.100;2022-07-22T08:12:27;20.25;;;14.55;;
28838;SDS011;15971;50.772;6.100;2022-07-22T08:14:53;17.85;;;13.23;;
28838;SDS011;15971;50.772;6.100;2022-07-22T08:17:19;15.52;;;12.73;;
28838;SDS011;15971;50.772;6.100;2022-07-22T08:19:44;19.02;;;13.52;;
28838;SDS011;15971;50.772;6.100;2022-07-22T08:22:10;19.27;;;13.93;;
28838;SDS011;15971;50.772;6.100;2022-07-22T08:24:36;16.02;;;13.27;;
28838;SDS011;15971;50.772;6.100;2022-07-22T08:27:01;18.98;;;11.48;;
28838;SDS011;15971;50.772;6.100;2022-07-22T08:29:27;19.08;;;13.57;;
28838;SDS011;15971;50.772;6.100;2022-07-22T08:31:53;15.00;;;12.23;;
28838;SDS011;15971;50.772;6.100;2022-07-22T08:34:18;20.17;;;14.70;;
28838;SDS011;15971;50.772;6.100;2022-07-22T08:36:44;19.25;;;12.82;;
28838;SDS011;15971;50.772;6.100;2022-07-22T08:39:10;17.08;;;12.30;;
28838;SDS011;15971;50.772;6.100;2022-07-22T08:41:36;18.55;;;13.82;;
28838;SDS011;15971;50.772;6.100;2022-07-22T08:44:03;19.95;;;13.85;;
28838;SDS011;15971;50.772;6.100;2022-07-22T08:46:30;18.83;;;14.30;;
28838;SDS011;15971;50.772;6.100;2022-07-22T08:48:56;20.17;;;13.85;;
28838;SDS011;15971;50.772;6.100;2022-07-22T08:51:25;17.58;;;12.82;;
28838;SDS011;15971;50.772;6.100;2022-07-22T08:53:51;16.70;;;12.38;;
28838;SDS011;15971;50.772;6.100;2022-07-22T08:56:17;19.45;;;14.27;;
28838;SDS011;15971;50.772;6.100;2022-07-22T08:58:43;22.25;;;14.65;;
28838;SDS011;15971;50.772;6.100;2022-07-22T09:01:12;19.52;;;14.25;;
28838;SDS011;15971;50.772;6.100;2022-07-22T09:03:58;20.00;;;14.27;;
28838;SDS011;15971;50.772;6.100;2022-07-22T09:06:25;16.92;;;13.23;;
28838;SDS011;15971;50.772;6.100;2022-07-22T09:08:55;22.63;;;14.93;;
28838;SDS011;15971;50.772;6.100;2022-07-22T09:11:23;19.05;;;13.60;;
28838;SDS011;15971;50.772;6.100;2022-07-22T09:13:51;19.50;;;13.57;;
28838;SDS011;15971;50.772;6.100;2022-07-22T09:16:37;19.08;;;12.77;;
28838;SDS011;15971;50.772;6.100;2022-07-22T09:19:13;18.30;;;13.55;;
28838;SDS011;15971;50.772;6.100;2022-07-22T09:21:40;19.00;;;13.68;;
28838;SDS011;15971;50.772;6.100;2022-07-22T09:24:28;21.38;;;16.00;;
28838;SDS011;15971;50.772;6.100;2022-07-22T09:26:55;16.88;;;12.30;;
28838;SDS011;15971;50.772;6.100;2022-07-22T09:29:21;19.27;;;13.77;;
28838;SDS011;15971;50.772;6.100;2022-07-22T09:31:49;16.90;;;12.85;;
28838;SDS011;15971;50.772;6.100;2022-07-22T09:34:26;19.40;;;13.15;;
28838;SDS011;15971;50.772;6.100;2022-07-22T09:36:54;16.95;;;12.25;;
28838;SDS011;15971;50.772;6.100;2022-07-22T09:39:26;17.90;;;12.80;;
28838;SDS011;15971;50.772;6.100;2022-07-22T09:41:58;23.17;;;15.32;;
28838;SDS011;15971;50.772;6.100;2022-07-22T09:44:26;17.33;;;12.52;;
28838;SDS011;15971;50.772;6.100;2022-07-22T09:46:52;21.80;;;13.32;;
28838;SDS011;15971;50.772;6.100;2022-07-22T09:49:38;18.63;;;12.25;;
28838;SDS011;15971;50.772;6.100;2022-07-22T09:52:06;18.15;;;13.00;;
28838;SDS011;15971;50.772;6.100;2022-07-22T09:54:32;16.55;;;11.68;;
28838;SDS011;15971;50.772;6.100;2022-07-22T09:56:58;16.27;;;11.85;;
28838;SDS011;15971;50.772;6.100;2022-07-22T09:59:24;16.17;;;11.93;;
28838;SDS011;15971;50.772;6.100;2022-07-22T10:01:50;43.25;;;26.70;;
28838;SDS011;15971;50.772;6.100;2022-07-22T10:04:19;27.50;;;16.15;;
28838;SDS011;15971;50.772;6.100;2022-07-22T10:06:47;20.42;;;13.02;;
28838;SDS011;15971;50.772;6.100;2022-07-22T10:09:14;22.00;;;14.10;;
28838;SDS011;15971;50.772;6.100;2022-07-22T10:11:42;19.08;;;12.45;;
28838;SDS011;15971;50.772;6.100;2022-07-22T10:14:11;20.83;;;14.05;;
28838;SDS011;15971;50.772;6.100;2022-07-22T10:16:38;19.10;;;11.85;;
28838;SDS011;15971;50.772;6.100;2022-07-22T10:19:05;18.13;;;12.50;;
28838;SDS011;15971;50.772;6.100;2022-07-22T10:21:32;18.15;;;12.15;;
28838;SDS011;15971;50.772;6.100;2022-07-22T10:24:15;21.25;;;12.20;;
28838;SDS011;15971;50.772;6.100;2022-07-22T10:29:25;18.70;;;11.05;;
28838;SDS011;15971;50.772;6.100;2022-07-22T10:34:41;19.38;;;12.98;;
28838;SDS011;15971;50.772;6.100;2022-07-22T10:37:35;19.95;;;12.68;;
28838;SDS011;15971;50.772;6.100;2022-07-22T10:40:11;19.60;;;12.00;;
28838;SDS011;15971;50.772;6.100;2022-07-22T10:45:30;21.33;;;12.60;;
28838;SDS011;15971;50.772;6.100;2022-07-22T10:47:58;17.48;;;11.95;;
28838;SDS011;15971;50.772;6.100;2022-07-22T10:53:12;19.08;;;11.52;;
28838;SDS011;15971;50.772;6.100;2022-07-22T11:01:04;18.90;;;11.25;;
28838;SDS011;15971;50.772;6.100;2022-07-22T11:03:32;17.90;;;9.90;;
28838;SDS011;15971;50.772;6.100;2022-07-22T11:08:42;16.50;;;10.68;;
28838;SDS011;15971;50.772;6.100;2022-07-22T11:11:09;23.80;;;11.35;;
28838;SDS011;15971;50.772;6.100;2022-07-22T11:13:36;18.17;;;10.10;;
28838;SDS011;15971;50.772;6.100;2022-07-22T11:16:18;22.48;;;12.70;;
28838;SDS011;15971;50.772;6.100;2022-07-22T11:21:20;17.67;;;10.32;;
28838;SDS011;15971;50.772;6.100;2022-07-22T11:23:49;15.65;;;9.45;;
28838;SDS011;15971;50.772;6.100;2022-07-22T11:26:17;14.80;;;10.15;;
28838;SDS011;15971;50.772;6.100;2022-07-22T11:28:45;18.83;;;11.45;;
28838;SDS011;15971;50.772;6.100;2022-07-22T11:31:16;19.92;;;10.80;;
28838;SDS011;15971;50.772;6.100;2022-07-22T11:33:42;20.92;;;10.40;;
28838;SDS011;15971;50.772;6.100;2022-07-22T11:36:09;13.88;;;10.18;;
28838;SDS011;15971;50.772;6.100;2022-07-22T11:41:17;20.00;;;10.43;;
28838;SDS011;15971;50.772;6.100;2022-07-22T11:43:47;15.13;;;9.90;;
28838;SDS011;15971;50.772;6.100;2022-07-22T11:46:15;16.38;;;10.25;;
28838;SDS011;15971;50.772;6.100;2022-07-22T11:48:42;18.77;;;10.90;;
28838;SDS011;15971;50.772;6.100;2022-07-22T11:51:09;16.92;;;9.93;;
28838;SDS011;15971;50.772;6.100;2022-07-22T11:53:37;17.23;;;9.43;;
28838;SDS011;15971;50.772;6.100;2022-07-22T11:56:05;20.25;;;10.32;;
28838;SDS011;15971;50.772;6.100;2022-07-22T11:58:33;16.52;;;8.82;;
28838;SDS011;15971;50.772;6.100;2022-07-22T12:00:59;16.02;;;9.60;;
28838;SDS011;15971;50.772;6.100;2022-07-22T12:03:25;13.45;;;8.57;;
28838;SDS011;15971;50.772;6.100;2022-07-22T12:05:51;17.02;;;9.75;;
28838;SDS011;15971;50.772;6.100;2022-07-22T12:08:17;15.23;;;9.73;;
28838;SDS011;15971;50.772;6.100;2022-07-22T12:10:43;29.15;;;19.90;;
28838;SDS011;15971;50.772;6.100;2022-07-22T12:13:12;14.18;;;10.25;;
28838;SDS011;15971;50.772;6.100;2022-07-22T12:15:38;16.77;;;10.40;;
28838;SDS011;15971;50.772;6.100;2022-07-22T12:18:17;16.10;;;10.63;;
28838;SDS011;15971;50.772;6.100;2022-07-22T12:20:45;14.45;;;9.00;;
28838;SDS011;15971;50.772;6.100;2022-07-22T12:23:12;14.50;;;9.10;;
28838;SDS011;15971;50.772;6.100;2022-07-22T12:25:54;15.93;;;10.38;;
28838;SDS011;15971;50.772;6.100;2022-07-22T12:28:24;16.50;;;10.65;;
28838;SDS011;15971;50.772;6.100;2022-07-22T12:30:50;16.23;;;9.25;;
28838;SDS011;15971;50.772;6.100;2022-07-22T12:33:19;14.18;;;8.80;;
28838;SDS011;15971;50.772;6.100;2022-07-22T12:35:57;14.07;;;10.07;;
28838;SDS011;15971;50.772;6.100;2022-07-22T12:38:28;15.13;;;8.45;;
28838;SDS011;15971;50.772;6.100;2022-07-22T12:40:54;17.40;;;9.48;;
28838;SDS011;15971;50.772;6.100;2022-07-22T12:43:23;13.68;;;8.65;;
28838;SDS011;15971;50.772;6.100;2022-07-22T12:45:50;14.90;;;9.05;;
28838;SDS011;15971;50.772;6.100;2022-07-22T12:48:16;13.07;;;8.05;;
28838;SDS011;15971;50.772;6.100;2022-07-22T12:50:56;19.15;;;9.05;;
28838;SDS011;15971;50.772;6.100;2022-07-22T12:53:23;12.98;;;8.40;;
28838;SDS011;15971;50.772;6.100;2022-07-22T12:55:50;13.60;;;8.20;;
28838;SDS011;15971;50.772;6.100;2022-07-22T12:58:20;16.35;;;7.28;;
28838;SDS011;15971;50.772;6.100;2022-07-22T13:00:49;12.65;;;6.97;;
28838;SDS011;15971;50.772;6.100;2022-07-22T13:03:16;13.70;;;8.07;;
28838;SDS011;15971;50.772;6.100;2022-07-22T13:05:51;13.80;;;7.85;;
28838;SDS011;15971;50.772;6.100;2022-07-22T13:08:19;13.50;;;7.50;;
28838;SDS011;15971;50.772;6.100;2022-07-22T13:10:44;15.32;;;8.63;;
28838;SDS011;15971;50.772;6.100;2022-07-22T13:13:10;12.93;;;7.97;;
28838;SDS011;15971;50.772;6.100;2022-07-22T13:15:36;13.30;;;8.63;;
28838;SDS011;15971;50.772;6.100;2022-07-22T13:18:03;10.60;;;7.43;;
28838;SDS011;15971;50.772;6.100;2022-07-22T13:20:29;16.10;;;9.80;;
28838;SDS011;15971;50.772;6.100;2022-07-22T13:22:55;12.52;;;8.90;;
28838;SDS011;15971;50.772;6.100;2022-07-22T13:25:20;16.08;;;8.25;;
28838;SDS011;15971;50.772;6.100;2022-07-22T13:27:46;13.25;;;7.65;;
28838;SDS011;15971;50.772;6.100;2022-07-22T13:30:12;18.23;;;8.10;;
28838;SDS011;15971;50.772;6.100;2022-07-22T13:32:38;16.42;;;9.05;;
28838;SDS011;15971;50.772;6.100;2022-07-22T13:35:04;10.43;;;7.97;;
28838;SDS011;15971;50.772;6.100;2022-07-22T13:37:30;14.98;;;9.50;;
28838;SDS011;15971;50.772;6.100;2022-07-22T13:39:55;13.50;;;9.00;;
28838;SDS011;15971;50.772;6.100;2022-07-22T13:42:21;16.35;;;9.73;;
28838;SDS011;15971;50.772;6.100;2022-07-22T13:44:47;16.67;;;8.82;;
28838;SDS011;15971;50.772;6.100;2022-07-22T13:47:16;15.43;;;8.60;;
28838;SDS011;15971;50.772;6.100;2022-07-22T13:49:41;15.13;;;9.00;;
28838;SDS011;15971;50.772;6.100;2022-07-22T13:52:09;16.08;;;9.18;;
28838;SDS011;15971;50.772;6.100;2022-07-22T13:54:35;17.15;;;9.88;;
28838;SDS011;15971;50.772;6.100;2022-07-22T13:57:00;15.07;;;9.90;;
28838;SDS011;15971;50.772;6.100;2022-07-22T13:59:28;15.75;;;9.98;;
28838;SDS011;15971;50.772;6.100;2022-07-22T14:01:55;14.93;;;8.70;;
28838;SDS011;15971;50.772;6.100;2022-07-22T14:04:21;15.23;;;10.10;;
28838;SDS011;15971;50.772;6.100;2022-07-22T14:06:47;22.77;;;10.50;;
28838;SDS011;15971;50.772;6.100;2022-07-22T14:09:12;16.67;;;9.07;;
28838;SDS011;15971;50.772;6.100;2022-07-22T14:11:38;14.30;;;9.52;;
28838;SDS011;15971;50.772;6.100;2022-07-22T14:14:04;19.25;;;10.48;;
28838;SDS011;15971;50.772;6.100;2022-07-22T14:16:31;14.40;;;10.35;;
28838;SDS011;15971;50.772;6.100;2022-07-22T14:19:06;13.20;;;9.90;;
28838;SDS011;15971;50.772;6.100;2022-07-22T14:21:35;15.40;;;9.48;;
28838;SDS011;15971;50.772;6.100;2022-07-22T14:24:01;18.13;;;9.35;;
28838;SDS011;15971;50.772;6.100;2022-07-22T14:26:28;14.57;;;9.55;;
28838;SDS011;15971;50.772;6.100;2022-07-22T14:28:54;14.13;;;8.85;;
28838;SDS011;15971;50.772;6.100;2022-07-22T14:31:20;20.90;;;10.23;;
28838;SDS011;15971;50.772;6.100;2022-07-22T14:33:45;16.08;;;10.20;;
28838;SDS011;15971;50.772;6.100;2022-07-22T14:36:11;13.70;;;9.98;;
28838;SDS011;15971;50.772;6.100;2022-07-22T14:38:37;14.52;;;9.32;;
28838;SDS011;15971;50.772;6.100;2022-07-22T14:41:03;17.00;;;10.05;;
28838;SDS011;15971;50.772;6.100;2022-07-22T14:43:29;16.10;;;9.68;;
28838;SDS011;15971;50.772;6.100;2022-07-22T14:45:55;14.48;;;9.85;;
28838;SDS011;15971;50.772;6.100;2022-07-22T14:48:20;19.15;;;10.73;;
28838;SDS011;15971;50.772;6.100;2022-07-22T14:50:46;15.93;;;10.43;;
28838;SDS011;15971;50.772;6.100;2022-07-22T14:53:12;16.13;;;10.50;;
28838;SDS011;15971;50.772;6.100;2022-07-22T14:55:38;19.98;;;11.10;;